sensor_id;sensor_type;location;lat;lon;timestamp;pressure;altitude;pressure_sealevel;temperature;humidity
15487;BME280;7845;53.698;10.078;2023-04-15T00:00:12;100669.16;;;12.99;100.00
15487;BME280;7845;53.698;10.078;2023-04-15T00:02:37;100673.53;;;12.97;100.00
15487;BME280;7845;53.698;10.078;2023-04-15T00:05:07;100670.16;;;13.36;100.00
15487;BME280;7845;53.698;10.078;2023-04-15T00:07:39;100664.84;;;12.93;100.00
15487;BME280;7845;53.698;10.078;2023-04-15T00:10:07;100654.94;;;12.64;100.00
15487;BME280;7845;53.698;10.078;2023-04-15T00:12:33;100662.03;;;12.59;100.00
15487;BME280;7845;53.698;10.078;2023-04-15T00:14:59;100661.19;;;13.03;100.00
15487;BME280;7845;53.698;10.078;2023-04-15T00:17:24;100658.66;;;12.99;100.00
15487;BME280;7845;53.698;10.078;2023-04-15T00:19:54;100648.38;;;13.34;100.00
15487;BME280;7845;53.698;10.078;2023-04-15T00:22:22;100654.13;;;13.07;100.00
15487;BME280;7845;53.698;10.078;2023-04-15T00:24:53;100636.66;;;13.09;100.00
15487;BME280;7845;53.698;10.078;2023-04-15T00:27:26;100649.84;;;13.03;100.00
15487;BME280;7845;53.698;10.078;2023-04-15T00:29:51;100656.88;;;12.99;100.00
15487;BME280;7845;53.698;10.078;2023-04-15T00:32:17;100654.88;;;12.69;100.00
15487;BME280;7845;53.698;10.078;2023-04-15T00:34:46;100656.53;;;12.73;100.00
15487;BME280;7845;53.698;10.078;2023-04-15T00:37:13;100657.63;;;13.07;100.00
15487;BME280;7845;53.698;10.078;2023-04-15T00:39:39;100647.00;;;13.16;100.00
15487;BME280;7845;53.698;10.078;2023-04-15T00:42:05;100645.75;;;13.32;100.00
15487;BME280;7845;53.698;10.078;2023-04-15T00:44:32;100644.06;;;13.32;100.00
15487;BME280;7845;53.698;10.078;2023-04-15T00:46:59;100642.50;;;13.21;100.00
15487;BME280;7845;53.698;10.078;2023-04-15T00:49:25;100648.69;;;13.17;100.00
15487;BME280;7845;53.698;10.078;2023-04-15T00:51:51;100655.53;;;12.80;100.00
15487;BME280;7845;53.698;10.078;2023-04-15T00:54:20;100658.38;;;12.68;100.00
15487;BME280;7845;53.698;10.078;2023-04-15T00:56:45;100664.47;;;12.18;100.00
15487;BME280;7845;53.698;10.078;2023-04-15T00:59:11;100671.13;;;12.37;100.00
15487;BME280;7845;53.698;10.078;2023-04-15T01:01:37;100666.69;;;12.90;100.00
15487;BME280;7845;53.698;10.078;2023-04-15T01:04:03;100666.31;;;13.11;100.00
15487;BME280;7845;53.698;10.078;2023-04-15T01:06:30;100663.75;;;13.06;100.00
15487;BME280;7845;53.698;10.078;2023-04-15T01:08:57;100664.59;;;12.61;100.00
15487;BME280;7845;53.698;10.078;2023-04-15T01:11:23;100671.41;;;12.69;100.00
15487;BME280;7845;53.698;10.078;2023-04-15T01:13:50;100661.22;;;13.02;100.00
15487;BME280;7845;53.698;10.078;2023-04-15T01:16:17;100653.06;;;12.71;100.00
15487;BME280;7845;53.698;10.078;2023-04-15T01:18:43;100654.53;;;12.87;100.00
15487;BME280;7845;53.698;10.078;2023-04-15T01:21:09;100646.19;;;13.11;100.00
15487;BME280;7845;53.698;10.078;2023-04-15T01:23:36;100653.16;;;13.14;100.00
15487;BME280;7845;53.698;10.078;2023-04-15T01:26:06;100647.50;;;12.89;100.00
15487;BME280;7845;53.698;10.078;2023-04-15T01:28:33;100644.34;;;12.70;100.00
15487;BME280;7845;53.698;10.078;2023-04-15T01:31:12;100647.13;;;12.63;100.00
15487;BME280;7845;53.698;10.078;2023-04-15T01:33:39;100649.88;;;13.01;100.00
15487;BME280;7845;53.698;10.078;2023-04-15T01:36:06;100644.09;;;12.84;100.00
15487;BME280;7845;53.698;10.078;2023-04-15T01:38:36;100629.53;;;13.15;100.00
15487;BME280;7845;53.698;10.078;2023-04-15T01:41:02;100633.69;;;12.81;100.00
15487;BME280;7845;53.698;10.078;2023-04-15T01:43:33;100629.56;;;13.14;100.00
15487;BME280;7845;53.698;10.078;2023-04-15T01:46:07;100625.47;;;13.42;100.00
15487;BME280;7845;53.698;10.078;2023-04-15T01:48:33;100617.56;;;13.44;100.00
15487;BME280;7845;53.698;10.078;2023-04-15T01:50:59;100617.44;;;13.50;100.00
15487;BME280;7845;53.698;10.078;2023-04-15T01:53:25;100608.66;;;13.11;100.00
15487;BME280;7845;53.698;10.078;2023-04-15T01:55:50;100613.41;;;13.34;100.00
15487;BME280;7845;53.698;10.078;2023-04-15T01:58:18;100613.22;;;13.43;100.00
15487;BME280;7845;53.698;10.078;2023-04-15T02:00:43;100608.25;;;13.30;100.00
15487;BME280;7845;53.698;10.078;2023-04-15T02:03:09;100603.88;;;13.31;100.00
15487;BME280;7845;53.698;10.078;2023-04-15T02:05:35;100599.22;;;13.44;100.00
15487;BME280;7845;53.698;10.078;2023-04-15T02:08:01;100596.38;;;12.68;100.00
15487;BME280;7845;53.698;10.078;2023-04-15T02:10:28;100604.19;;;12.71;100.00
15487;BME280;7845;53.698;10.078;2023-04-15T02:12:56;100608.38;;;12.78;100.00
15487;BME280;7845;53.698;10.078;2023-04-15T02:15:21;100610.41;;;13.10;100.00
15487;BME280;7845;53.698;10.078;2023-04-15T02:17:47;100611.63;;;12.48;100.00
15487;BME280;7845;53.698;10.078;2023-04-15T02:20:18;100610.56;;;13.01;100.00
15487;BME280;7845;53.698;10.078;2023-04-15T02:22:45;100610.59;;;13.00;100.00
15487;BME280;7845;53.698;10.078;2023-04-15T02:25:11;100602.59;;;13.07;100.00
15487;BME280;7845;53.698;10.078;2023-04-15T02:27:36;100603.59;;;13.02;100.00
15487;BME280;7845;53.698;10.078;2023-04-15T02:30:02;100604.81;;;12.84;100.00
15487;BME280;7845;53.698;10.078;2023-04-15T02:32:27;100607.91;;;12.58;100.00
15487;BME280;7845;53.698;10.078;2023-04-15T02:34:54;100602.13;;;12.87;100.00
15487;BME280;7845;53.698;10.078;2023-04-15T02:37:19;100607.03;;;12.58;100.00
15487;BME280;7845;53.698;10.078;2023-04-15T02:39:45;100609.44;;;12.70;100.00
15487;BME280;7845;53.698;10.078;2023-04-15T02:42:11;100606.81;;;12.24;100.00
15487;BME280;7845;53.698;10.078;2023-04-15T02:44:37;100605.47;;;12.49;100.00
15487;BME280;7845;53.698;10.078;2023-04-15T02:47:02;100606.44;;;12.45;100.00
15487;BME280;7845;53.698;10.078;2023-04-15T02:49:30;100616.38;;;12.72;100.00
15487;BME280;7845;53.698;10.078;2023-04-15T02:51:55;100603.53;;;13.03;100.00
15487;BME280;7845;53.698;10.078;2023-04-15T02:54:24;100602.13;;;12.87;100.00
15487;BME280;7845;53.698;10.078;2023-04-15T02:56:51;100611.47;;;13.00;100.00
15487;BME280;7845;53.698;10.078;2023-04-15T02:59:19;100604.06;;;13.20;100.00
15487;BME280;7845;53.698;10.078;2023-04-15T03:01:47;100603.78;;;13.34;100.00
15487;BME280;7845;53.698;10.078;2023-04-15T03:04:12;100608.91;;;12.97;100.00
15487;BME280;7845;53.698;10.078;2023-04-15T03:06:39;100614.69;;;13.14;100.00
15487;BME280;7845;53.698;10.078;2023-04-15T03:09:06;100611.59;;;13.37;100.00
15487;BME280;7845;53.698;10.078;2023-04-15T03:11:32;100603.47;;;13.48;100.00
15487;BME280;7845;53.698;10.078;2023-04-15T03:13:58;100602.94;;;13.34;100.00
15487;BME280;7845;53.698;10.078;2023-04-15T03:16:24;100611.81;;;12.84;100.00
15487;BME280;7845;53.698;10.078;2023-04-15T03:18:50;100604.88;;;13.25;100.00
15487;BME280;7845;53.698;10.078;2023-04-15T03:21:15;100608.84;;;13.42;100.00
15487;BME280;7845;53.698;10.078;2023-04-15T03:23:40;100599.47;;;13.70;100.00
15487;BME280;7845;53.698;10.078;2023-04-15T03:26:06;100594.50;;;13.19;100.00
15487;BME280;7845;53.698;10.078;2023-04-15T03:28:31;100594.41;;;13.24;100.00
15487;BME280;7845;53.698;10.078;2023-04-15T03:30:57;100593.41;;;13.29;100.00
15487;BME280;7845;53.698;10.078;2023-04-15T03:33:23;100591.84;;;12.78;100.00
15487;BME280;7845;53.698;10.078;2023-04-15T03:35:49;100580.88;;;13.42;100.00
15487;BME280;7845;53.698;10.078;2023-04-15T03:38:17;100583.28;;;13.13;100.00
15487;BME280;7845;53.698;10.078;2023-04-15T03:40:42;100584.91;;;13.18;100.00
15487;BME280;7845;53.698;10.078;2023-04-15T03:43:08;100580.53;;;13.19;100.00
15487;BME280;7845;53.698;10.078;2023-04-15T03:45:34;100585.19;;;13.45;100.00
15487;BME280;7845;53.698;10.078;2023-04-15T03:47:59;100585.09;;;13.11;100.00
15487;BME280;7845;53.698;10.078;2023-04-15T03:50:25;100586.13;;;12.99;100.00
15487;BME280;7845;53.698;10.078;2023-04-15T03:52:50;100585.16;;;13.08;100.00
15487;BME280;7845;53.698;10.078;2023-04-15T03:55:16;100583.03;;;13.25;100.00
15487;BME280;7845;53.698;10.078;2023-04-15T03:57:41;100576.44;;;13.46;100.00
15487;BME280;7845;53.698;10.078;2023-04-15T04:00:08;100592.06;;;13.50;100.00
15487;BME280;7845;53.698;10.078;2023-04-15T04:02:35;100606.22;;;13.00;100.00
15487;BME280;7845;53.698;10.078;2023-04-15T04:05:00;100600.81;;;13.09;100.00
15487;BME280;7845;53.698;10.078;2023-04-15T04:07:25;100598.00;;;13.18;100.00
15487;BME280;7845;53.698;10.078;2023-04-15T04:09:51;100596.06;;;13.26;100.00
15487;BME280;7845;53.698;10.078;2023-04-15T04:12:16;100599.16;;;13.04;100.00
15487;BME280;7845;53.698;10.078;2023-04-15T04:14:42;100601.38;;;12.81;100.00
15487;BME280;7845;53.698;10.078;2023-04-15T04:17:07;100605.63;;;13.29;100.00
15487;BME280;7845;53.698;10.078;2023-04-15T04:19:32;100599.34;;;13.38;100.00
15487;BME280;7845;53.698;10.078;2023-04-15T04:21:58;100601.59;;;12.70;100.00
15487;BME280;7845;53.698;10.078;2023-04-15T04:24:25;100605.88;;;12.72;100.00
15487;BME280;7845;53.698;10.078;2023-04-15T04:26:50;100600.28;;;12.91;100.00
15487;BME280;7845;53.698;10.078;2023-04-15T04:29:16;100604.78;;;12.86;100.00
15487;BME280;7845;53.698;10.078;2023-04-15T04:31:42;100608.09;;;12.95;100.00
15487;BME280;7845;53.698;10.078;2023-04-15T04:34:08;100609.25;;;13.25;100.00
15487;BME280;7845;53.698;10.078;2023-04-15T04:36:33;100618.84;;;13.24;100.00
15487;BME280;7845;53.698;10.078;2023-04-15T04:39:00;100610.41;;;13.10;100.00
15487;BME280;7845;53.698;10.078;2023-04-15T04:41:25;100617.13;;;12.79;100.00
15487;BME280;7845;53.698;10.078;2023-04-15T04:43:51;100617.44;;;13.08;100.00
15487;BME280;7845;53.698;10.078;2023-04-15T04:46:17;100614.25;;;12.91;100.00
15487;BME280;7845;53.698;10.078;2023-04-15T04:48:42;100624.16;;;12.77;100.00
15487;BME280;7845;53.698;10.078;2023-04-15T04:51:08;100624.59;;;12.99;100.00
15487;BME280;7845;53.698;10.078;2023-04-15T04:53:35;100625.38;;;13.02;100.00
15487;BME280;7845;53.698;10.078;2023-04-15T04:56:03;100621.72;;;13.12;100.00
15487;BME280;7845;53.698;10.078;2023-04-15T04:58:29;100613.03;;;13.10;100.00
15487;BME280;7845;53.698;10.078;2023-04-15T05:00:55;100608.28;;;12.85;100.00
15487;BME280;7845;53.698;10.078;2023-04-15T05:03:21;100607.75;;;12.67;100.00
15487;BME280;7845;53.698;10.078;2023-04-15T05:05:46;100610.72;;;12.94;100.00
15487;BME280;7845;53.698;10.078;2023-04-15T05:08:14;100601.53;;;13.57;100.00
15487;BME280;7845;53.698;10.078;2023-04-15T05:10:39;100605.88;;;13.58;100.00
15487;BME280;7845;53.698;10.078;2023-04-15T05:13:05;100605.41;;;13.40;100.00
15487;BME280;7845;53.698;10.078;2023-04-15T05:15:30;100596.63;;;13.42;100.00
15487;BME280;7845;53.698;10.078;2023-04-15T05:17:56;100594.47;;;13.21;100.00
15487;BME280;7845;53.698;10.078;2023-04-15T05:20:22;100597.88;;;13.26;100.00
15487;BME280;7845;53.698;10.078;2023-04-15T05:22:47;100596.59;;;13.44;100.00
15487;BME280;7845;53.698;10.078;2023-04-15T05:25:14;100601.66;;;13.51;100.00
15487;BME280;7845;53.698;10.078;2023-04-15T05:27:40;100602.09;;;12.89;100.00
15487;BME280;7845;53.698;10.078;2023-04-15T05:30:06;100603.59;;;13.43;100.00
15487;BME280;7845;53.698;10.078;2023-04-15T05:32:34;100607.56;;;13.22;100.00
15487;BME280;7845;53.698;10.078;2023-04-15T05:35:00;100619.06;;;13.55;100.00
15487;BME280;7845;53.698;10.078;2023-04-15T05:37:25;100599.34;;;13.38;100.00
15487;BME280;7845;53.698;10.078;2023-04-15T05:39:52;100597.16;;;13.56;100.00
15487;BME280;7845;53.698;10.078;2023-04-15T05:42:17;100590.41;;;13.05;100.00
15487;BME280;7845;53.698;10.078;2023-04-15T05:44:46;100599.91;;;13.52;100.00
15487;BME280;7845;53.698;10.078;2023-04-15T05:47:12;100613.59;;;13.26;100.00
15487;BME280;7845;53.698;10.078;2023-04-15T05:49:38;100609.63;;;13.47;100.00
15487;BME280;7845;53.698;10.078;2023-04-15T05:52:03;100610.59;;;13.43;100.00
15487;BME280;7845;53.698;10.078;2023-04-15T05:54:28;100608.44;;;13.21;100.00
15487;BME280;7845;53.698;10.078;2023-04-15T05:56:54;100617.53;;;12.58;100.00
15487;BME280;7845;53.698;10.078;2023-04-15T05:59:24;100620.78;;;13.15;100.00
15487;BME280;7845;53.698;10.078;2023-04-15T06:01:50;100617.41;;;13.10;100.00
15487;BME280;7845;53.698;10.078;2023-04-15T06:04:17;100627.53;;;12.84;100.00
15487;BME280;7845;53.698;10.078;2023-04-15T06:06:44;100624.44;;;13.06;100.00
15487;BME280;7845;53.698;10.078;2023-04-15T06:09:09;100633.69;;;13.25;100.00
15487;BME280;7845;53.698;10.078;2023-04-15T06:11:35;100619.16;;;13.51;100.00
15487;BME280;7845;53.698;10.078;2023-04-15T06:14:01;100623.91;;;13.72;100.00
15487;BME280;7845;53.698;10.078;2023-04-15T06:16:28;100623.47;;;13.92;100.00
15487;BME280;7845;53.698;10.078;2023-04-15T06:18:54;100622.41;;;13.99;100.00
15487;BME280;7845;53.698;10.078;2023-04-15T06:21:20;100618.75;;;14.06;100.00
15487;BME280;7845;53.698;10.078;2023-04-15T06:23:45;100630.69;;;14.53;100.00
15487;BME280;7845;53.698;10.078;2023-04-15T06:26:11;100630.34;;;13.96;100.00
15487;BME280;7845;53.698;10.078;2023-04-15T06:28:37;100631.16;;;14.34;100.00
15487;BME280;7845;53.698;10.078;2023-04-15T06:31:05;100636.03;;;13.77;100.00
15487;BME280;7845;53.698;10.078;2023-04-15T06:33:33;100639.34;;;13.85;100.00
15487;BME280;7845;53.698;10.078;2023-04-15T06:35:58;100630.41;;;13.94;100.00
15487;BME280;7845;53.698;10.078;2023-04-15T06:38:23;100630.91;;;13.33;100.00
15487;BME280;7845;53.698;10.078;2023-04-15T06:40:49;100637.53;;;13.88;100.00
15487;BME280;7845;53.698;10.078;2023-04-15T06:43:16;100635.38;;;14.05;100.00
15487;BME280;7845;53.698;10.078;2023-04-15T06:45:41;100644.63;;;13.84;100.00
15487;BME280;7845;53.698;10.078;2023-04-15T06:48:06;100647.16;;;13.87;100.00
15487;BME280;7845;53.698;10.078;2023-04-15T06:50:32;100651.81;;;13.74;100.00
15487;BME280;7845;53.698;10.078;2023-04-15T06:52:58;100640.56;;;13.31;100.00
15487;BME280;7845;53.698;10.078;2023-04-15T06:55:24;100650.53;;;13.92;100.00
15487;BME280;7845;53.698;10.078;2023-04-15T06:57:49;100655.84;;;13.89;100.00
15487;BME280;7845;53.698;10.078;2023-04-15T07:00:15;100656.13;;;13.77;100.00
15487;BME280;7845;53.698;10.078;2023-04-15T07:02:41;100653.44;;;13.80;100.00
15487;BME280;7845;53.698;10.078;2023-04-15T07:05:07;100651.72;;;14.16;100.00
15487;BME280;7845;53.698;10.078;2023-04-15T07:07:32;100651.03;;;14.09;100.00
15487;BME280;7845;53.698;10.078;2023-04-15T07:09:58;100647.00;;;14.30;100.00
15487;BME280;7845;53.698;10.078;2023-04-15T07:12:24;100646.47;;;14.16;100.00
15487;BME280;7845;53.698;10.078;2023-04-15T07:14:50;100650.47;;;14.33;100.00
15487;BME280;7845;53.698;10.078;2023-04-15T07:17:15;100654.00;;;13.94;100.00
15487;BME280;7845;53.698;10.078;2023-04-15T07:19:41;100663.22;;;13.34;100.00
15487;BME280;7845;53.698;10.078;2023-04-15T07:22:06;100650.47;;;13.58;100.00
15487;BME280;7845;53.698;10.078;2023-04-15T07:24:33;100662.78;;;13.55;100.00
15487;BME280;7845;53.698;10.078;2023-04-15T07:27:01;100654.72;;;13.62;100.00
15487;BME280;7845;53.698;10.078;2023-04-15T07:29:28;100666.59;;;13.40;100.00
15487;BME280;7845;53.698;10.078;2023-04-15T07:31:53;100669.72;;;13.96;100.00
15487;BME280;7845;53.698;10.078;2023-04-15T07:34:20;100670.38;;;13.25;100.00
15487;BME280;7845;53.698;10.078;2023-04-15T07:36:48;100671.47;;;13.57;100.00
15487;BME280;7845;53.698;10.078;2023-04-15T07:39:16;100668.97;;;13.89;100.00
15487;BME280;7845;53.698;10.078;2023-04-15T07:41:43;100674.88;;;13.60;100.00
15487;BME280;7845;53.698;10.078;2023-04-15T07:44:08;100685.94;;;13.33;100.00
15487;BME280;7845;53.698;10.078;2023-04-15T07:46:35;100678.19;;;13.68;100.00
15487;BME280;7845;53.698;10.078;2023-04-15T07:49:02;100673.34;;;14.27;100.00
15487;BME280;7845;53.698;10.078;2023-04-15T07:51:28;100681.13;;;13.55;100.00
15487;BME280;7845;53.698;10.078;2023-04-15T07:53:55;100683.16;;;13.80;100.00
15487;BME280;7845;53.698;10.078;2023-04-15T07:56:20;100674.03;;;14.35;100.00
15487;BME280;7845;53.698;10.078;2023-04-15T07:58:50;100685.06;;;14.12;100.00
15487;BME280;7845;53.698;10.078;2023-04-15T08:01:16;100678.66;;;13.87;100.00
15487;BME280;7845;53.698;10.078;2023-04-15T08:03:42;100680.25;;;14.32;100.00
15487;BME280;7845;53.698;10.078;2023-04-15T08:06:08;100687.50;;;14.20;100.00
15487;BME280;7845;53.698;10.078;2023-04-15T08:08:33;100689.31;;;14.18;100.00
15487;BME280;7845;53.698;10.078;2023-04-15T08:11:00;100683.06;;;14.59;100.00
15487;BME280;7845;53.698;10.078;2023-04-15T08:13:25;100691.81;;;13.85;100.00
15487;BME280;7845;53.698;10.078;2023-04-15T08:16:13;100686.31;;;13.96;100.00
15487;BME280;7845;53.698;10.078;2023-04-15T08:18:39;100690.28;;;14.51;100.00
15487;BME280;7845;53.698;10.078;2023-04-15T08:21:04;100690.59;;;14.37;100.00
15487;BME280;7845;53.698;10.078;2023-04-15T08:23:30;100693.84;;;13.73;100.00
15487;BME280;7845;53.698;10.078;2023-04-15T08:25:56;100695.78;;;14.03;100.00
15487;BME280;7845;53.698;10.078;2023-04-15T08:28:22;100697.72;;;14.67;100.00
15487;BME280;7845;53.698;10.078;2023-04-15T08:30:48;100699.34;;;14.39;100.00
15487;BME280;7845;53.698;10.078;2023-04-15T08:33:13;100701.66;;;14.13;100.00
15487;BME280;7845;53.698;10.078;2023-04-15T08:35:40;100696.66;;;14.40;100.00
15487;BME280;7845;53.698;10.078;2023-04-15T08:38:05;100716.66;;;13.69;100.00
15487;BME280;7845;53.698;10.078;2023-04-15T08:40:39;100709.25;;;14.25;100.00
15487;BME280;7845;53.698;10.078;2023-04-15T08:43:10;100700.00;;;14.47;100.00
15487;BME280;7845;53.698;10.078;2023-04-15T08:45:38;100714.84;;;14.11;100.00
15487;BME280;7845;53.698;10.078;2023-04-15T08:48:04;100712.69;;;14.65;100.00
15487;BME280;7845;53.698;10.078;2023-04-15T08:50:31;100703.72;;;14.38;100.00
15487;BME280;7845;53.698;10.078;2023-04-15T08:53:00;100711.19;;;14.89;100.00
15487;BME280;7845;53.698;10.078;2023-04-15T08:55:32;100709.19;;;14.97;100.00
15487;BME280;7845;53.698;10.078;2023-04-15T08:58:00;100719.84;;;14.92;100.00
15487;BME280;7845;53.698;10.078;2023-04-15T09:00:27;100711.03;;;14.95;100.00
15487;BME280;7845;53.698;10.078;2023-04-15T09:02:54;100717.84;;;14.31;100.00
15487;BME280;7845;53.698;10.078;2023-04-15T09:05:22;100718.13;;;14.19;100.00
15487;BME280;7845;53.698;10.078;2023-04-15T09:07:49;100720.59;;;14.27;100.00
15487;BME280;7845;53.698;10.078;2023-04-15T09:10:15;100717.53;;;15.13;100.00
15487;BME280;7845;53.698;10.078;2023-04-15T09:12:41;100718.00;;;15.28;100.00
15487;BME280;7845;53.698;10.078;2023-04-15T09:15:11;100719.63;;;15.63;100.00
15487;BME280;7845;53.698;10.078;2023-04-15T09:17:42;100710.72;;;15.38;100.00
15487;BME280;7845;53.698;10.078;2023-04-15T09:20:09;100715.78;;;15.75;100.00
15487;BME280;7845;53.698;10.078;2023-04-15T09:22:35;100714.66;;;16.11;100.00
15487;BME280;7845;53.698;10.078;2023-04-15T09:25:02;100716.50;;;16.09;100.00
15487;BME280;7845;53.698;10.078;2023-04-15T09:27:29;100720.06;;;15.79;100.00
15487;BME280;7845;53.698;10.078;2023-04-15T09:29:56;100714.16;;;16.00;100.00
15487;BME280;7845;53.698;10.078;2023-04-15T09:32:21;100726.34;;;16.02;100.00
15487;BME280;7845;53.698;10.078;2023-04-15T09:34:48;100722.66;;;16.88;100.00
15487;BME280;7845;53.698;10.078;2023-04-15T09:37:15;100719.34;;;16.29;100.00
15487;BME280;7845;53.698;10.078;2023-04-15T09:39:50;100725.13;;;17.17;100.00
15487;BME280;7845;53.698;10.078;2023-04-15T09:42:16;100723.03;;;17.27;100.00
15487;BME280;7845;53.698;10.078;2023-04-15T09:44:49;100726.03;;;16.67;100.00
15487;BME280;7845;53.698;10.078;2023-04-15T09:47:31;100728.13;;;16.84;100.00
15487;BME280;7845;53.698;10.078;2023-04-15T09:49:58;100742.59;;;17.22;100.00
15487;BME280;7845;53.698;10.078;2023-04-15T09:52:24;100749.94;;;16.61;100.00
15487;BME280;7845;53.698;10.078;2023-04-15T09:54:53;100743.56;;;17.19;100.00
15487;BME280;7845;53.698;10.078;2023-04-15T09:57:22;100750.41;;;16.74;100.00
15487;BME280;7845;53.698;10.078;2023-04-15T09:59:50;100753.41;;;17.39;100.00
15487;BME280;7845;53.698;10.078;2023-04-15T10:02:18;100743.88;;;18.06;100.00
15487;BME280;7845;53.698;10.078;2023-04-15T10:04:47;100744.09;;;18.00;100.00
15487;BME280;7845;53.698;10.078;2023-04-15T10:07:13;100745.66;;;17.82;100.00
15487;BME280;7845;53.698;10.078;2023-04-15T10:09:39;100749.59;;;18.17;100.00
15487;BME280;7845;53.698;10.078;2023-04-15T10:12:08;100758.44;;;17.71;100.00
15487;BME280;7845;53.698;10.078;2023-04-15T10:14:34;100759.44;;;17.42;100.00
15487;BME280;7845;53.698;10.078;2023-04-15T10:17:10;100762.94;;;17.91;100.00
15487;BME280;7845;53.698;10.078;2023-04-15T10:19:36;100755.38;;;17.58;100.00
15487;BME280;7845;53.698;10.078;2023-04-15T10:22:03;100761.31;;;18.10;100.00
15487;BME280;7845;53.698;10.078;2023-04-15T10:24:32;100761.69;;;18.88;100.00
15487;BME280;7845;53.698;10.078;2023-04-15T10:26:59;100758.91;;;18.91;100.00
15487;BME280;7845;53.698;10.078;2023-04-15T10:29:28;100763.19;;;18.73;100.00
15487;BME280;7845;53.698;10.078;2023-04-15T10:31:58;100759.25;;;19.64;100.00
15487;BME280;7845;53.698;10.078;2023-04-15T10:34:24;100768.66;;;19.30;100.00
15487;BME280;7845;53.698;10.078;2023-04-15T10:36:50;100767.19;;;18.61;100.00
15487;BME280;7845;53.698;10.078;2023-04-15T10:42:33;100761.50;;;18.92;100.00
15487;BME280;7845;53.698;10.078;2023-04-15T10:44:58;100771.50;;;18.19;100.00
15487;BME280;7845;53.698;10.078;2023-04-15T10:47:24;100779.50;;;18.17;100.00
15487;BME280;7845;53.698;10.078;2023-04-15T10:49:57;100778.56;;;18.42;100.00
15487;BME280;7845;53.698;10.078;2023-04-15T10:52:25;100781.13;;;18.21;100.00
15487;BME280;7845;53.698;10.078;2023-04-15T10:55:22;100766.56;;;18.55;100.00
15487;BME280;7845;53.698;10.078;2023-04-15T10:57:51;100775.34;;;18.99;100.00
15487;BME280;7845;53.698;10.078;2023-04-15T11:00:18;100782.50;;;19.17;100.00
15487;BME280;7845;53.698;10.078;2023-04-15T11:02:52;100777.34;;;18.72;100.00
15487;BME280;7845;53.698;10.078;2023-04-15T11:05:22;100785.28;;;19.14;100.00
15487;BME280;7845;53.698;10.078;2023-04-15T11:12:41;100780.00;;;18.50;100.00
15487;BME280;7845;53.698;10.078;2023-04-15T11:15:33;100786.16;;;18.51;100.00
15487;BME280;7845;53.698;10.078;2023-04-15T11:18:18;100778.63;;;18.84;100.00
15487;BME280;7845;53.698;10.078;2023-04-15T11:23:17;100797.06;;;17.47;100.00
15487;BME280;7845;53.698;10.078;2023-04-15T11:25:43;100810.34;;;18.17;100.00
15487;BME280;7845;53.698;10.078;2023-04-15T11:28:08;100805.59;;;18.03;100.00
15487;BME280;7845;53.698;10.078;2023-04-15T11:30:35;100797.56;;;18.06;100.00
15487;BME280;7845;53.698;10.078;2023-04-15T11:33:08;100809.28;;;17.99;100.00
15487;BME280;7845;53.698;10.078;2023-04-15T11:35:34;100813.06;;;18.15;100.00
15487;BME280;7845;53.698;10.078;2023-04-15T11:38:04;100802.47;;;18.82;100.00
15487;BME280;7845;53.698;10.078;2023-04-15T11:40:33;100807.06;;;18.34;100.00
15487;BME280;7845;53.698;10.078;2023-04-15T11:45:30;100835.16;;;18.81;100.00
15487;BME280;7845;53.698;10.078;2023-04-15T11:48:04;100829.94;;;18.11;100.00
15487;BME280;7845;53.698;10.078;2023-04-15T11:50:31;100839.03;;;18.51;100.00
15487;BME280;7845;53.698;10.078;2023-04-15T11:52:57;100851.34;;;17.81;100.00
15487;BME280;7845;53.698;10.078;2023-04-15T11:55:26;100858.78;;;17.94;100.00
15487;BME280;7845;53.698;10.078;2023-04-15T11:58:08;100863.53;;;17.85;100.00
15487;BME280;7845;53.698;10.078;2023-04-15T12:00:34;100863.66;;;18.05;100.00
15487;BME280;7845;53.698;10.078;2023-04-15T12:03:17;100857.56;;;18.26;100.00
15487;BME280;7845;53.698;10.078;2023-04-15T12:06:21;100862.94;;;18.24;100.00
15487;BME280;7845;53.698;10.078;2023-04-15T12:09:14;100865.44;;;18.28;100.00
15487;BME280;7845;53.698;10.078;2023-04-15T12:11:43;100875.94;;;18.06;100.00
15487;BME280;7845;53.698;10.078;2023-04-15T12:16:52;100859.13;;;18.98;100.00
15487;BME280;7845;53.698;10.078;2023-04-15T12:19:25;100854.97;;;18.93;100.00
15487;BME280;7845;53.698;10.078;2023-04-15T12:21:56;100862.16;;;18.89;100.00
15487;BME280;7845;53.698;10.078;2023-04-15T12:24:22;100861.28;;;19.52;100.00
15487;BME280;7845;53.698;10.078;2023-04-15T12:26:52;100864.59;;;19.15;100.00
15487;BME280;7845;53.698;10.078;2023-04-15T12:29:19;100865.50;;;18.49;100.00
15487;BME280;7845;53.698;10.078;2023-04-15T12:32:05;100858.97;;;18.81;100.00
15487;BME280;7845;53.698;10.078;2023-04-15T12:34:34;100882.16;;;18.28;100.00
15487;BME280;7845;53.698;10.078;2023-04-15T12:37:03;100870.41;;;18.82;100.00
15487;BME280;7845;53.698;10.078;2023-04-15T12:39:36;100868.56;;;18.84;100.00
15487;BME280;7845;53.698;10.078;2023-04-15T12:42:03;100863.53;;;19.19;100.00
15487;BME280;7845;53.698;10.078;2023-04-15T12:44:29;100864.09;;;19.06;100.00
15487;BME280;7845;53.698;10.078;2023-04-15T12:46:55;100868.25;;;19.33;100.00
15487;BME280;7845;53.698;10.078;2023-04-15T12:49:21;100874.16;;;18.98;100.00
15487;BME280;7845;53.698;10.078;2023-04-15T12:51:48;100881.25;;;19.39;100.00
15487;BME280;7845;53.698;10.078;2023-04-15T12:54:16;100876.25;;;19.11;100.00
15487;BME280;7845;53.698;10.078;2023-04-15T12:56:47;100875.53;;;19.28;100.00